createdAt,value
2019-05-17T00:00:49.177Z,976.35
2019-05-17T00:01:49.178Z,976.40
2019-05-17T00:02:49.056Z,976.36
2019-05-17T00:03:49.054Z,976.36
2019-05-17T00:04:48.937Z,976.32
2019-05-17T00:05:48.934Z,976.31
2019-05-17T00:06:48.824Z,976.33
2019-05-17T00:07:48.814Z,976.32
2019-05-17T00:08:48.699Z,976.33
2019-05-17T00:09:48.697Z,976.32
2019-05-17T00:10:48.697Z,976.32
2019-05-17T00:11:48.582Z,976.32
2019-05-17T00:12:48.578Z,976.31
2019-05-17T00:13:48.461Z,976.28
2019-05-17T00:14:48.458Z,976.27
2019-05-17T00:15:48.344Z,976.28
2019-05-17T00:16:48.340Z,976.28
2019-05-17T00:17:48.224Z,976.32
2019-05-17T00:18:48.221Z,976.30
2019-05-17T00:19:48.106Z,976.30
2019-05-17T00:20:48.103Z,976.25
2019-05-17T00:21:47.986Z,976.27
2019-05-17T00:22:48.025Z,976.25
2019-05-17T00:23:47.984Z,976.19
2019-05-17T00:24:47.886Z,976.15
2019-05-17T00:25:47.864Z,976.19
2019-05-17T00:26:47.745Z,976.15
2019-05-17T00:27:47.744Z,976.21
2019-05-17T00:28:47.630Z,976.18
2019-05-17T00:29:47.626Z,976.17
2019-05-17T00:30:47.510Z,976.14
2019-05-17T00:31:47.508Z,976.16
2019-05-17T00:32:47.761Z,976.12
2019-05-17T00:33:47.391Z,976.12
2019-05-17T00:34:47.276Z,976.11
2019-05-17T00:35:47.269Z,976.11
2019-05-17T00:36:47.153Z,976.12
2019-05-17T00:37:47.151Z,976.13
2019-05-17T00:38:51.240Z,976.16
2019-05-17T00:39:47.228Z,976.16
2019-05-17T00:40:47.198Z,976.15
2019-05-17T00:41:47.165Z,976.09
2019-05-17T00:42:46.912Z,976.14
2019-05-17T00:43:46.796Z,976.10
2019-05-17T00:44:47.397Z,976.06
2019-05-17T00:45:46.949Z,976.09
2019-05-17T00:46:46.907Z,976.04
2019-05-17T00:47:46.972Z,976.07
2019-05-17T00:48:46.675Z,976.08
2019-05-17T00:49:46.576Z,976.03
2019-05-17T00:50:52.393Z,976.04
2019-05-17T00:51:47.403Z,976.02
2019-05-17T00:52:47.444Z,975.98
2019-05-17T00:53:46.861Z,975.99
2019-05-17T00:54:46.925Z,976.00
2019-05-17T00:55:46.697Z,976.01
2019-05-17T00:56:46.409Z,976.00
2019-05-17T00:57:47.462Z,976.00
2019-05-17T00:58:47.791Z,975.99
2019-05-17T00:59:47.575Z,975.98
2019-05-17T01:00:47.911Z,976.00
2019-05-17T01:01:46.880Z,976.02
2019-05-17T01:02:46.834Z,975.99
2019-05-17T01:03:47.612Z,976.00
2019-05-17T01:04:47.624Z,975.98
2019-05-17T01:05:47.368Z,975.96
2019-05-17T01:06:46.899Z,975.97
2019-05-17T01:07:47.013Z,975.97
2019-05-17T01:08:47.476Z,975.95
2019-05-17T01:09:47.210Z,975.94
2019-05-17T01:10:47.395Z,975.93
2019-05-17T01:11:47.192Z,975.95
2019-05-17T01:12:45.249Z,975.98
2019-05-17T01:13:46.661Z,975.89
2019-05-17T01:14:46.638Z,975.94
2019-05-17T01:15:47.233Z,975.96
2019-05-17T01:16:47.328Z,975.95
2019-05-17T01:17:47.143Z,975.91
2019-05-17T01:18:46.866Z,975.91
2019-05-17T01:19:47.007Z,975.94
2019-05-17T01:20:47.294Z,975.86
2019-05-17T01:21:44.655Z,975.86
2019-05-17T01:22:47.206Z,975.84
2019-05-17T01:23:46.678Z,975.84
2019-05-17T01:24:46.283Z,975.83
2019-05-17T01:25:44.534Z,975.85
2019-05-17T01:26:46.713Z,975.82
2019-05-17T01:27:44.415Z,975.83
2019-05-17T01:28:46.561Z,975.84
2019-05-17T01:29:46.485Z,975.81
2019-05-17T01:30:46.272Z,975.77
2019-05-17T01:31:46.346Z,975.74
2019-05-17T01:32:46.444Z,975.76
2019-05-17T01:33:44.063Z,975.75
2019-05-17T01:34:43.942Z,975.72
2019-05-17T01:35:43.940Z,975.68
2019-05-17T01:36:46.296Z,975.72
2019-05-17T01:37:43.820Z,975.66
2019-05-17T01:38:43.823Z,975.66
2019-05-17T01:39:43.702Z,975.68
2019-05-17T01:40:43.701Z,975.70
2019-05-17T01:41:43.583Z,975.67
2019-05-17T01:42:43.581Z,975.68
2019-05-17T01:43:43.464Z,975.69
2019-05-17T01:44:43.462Z,975.69
2019-05-17T01:45:43.347Z,975.67
2019-05-17T01:46:43.343Z,975.66
2019-05-17T01:47:43.229Z,975.66
2019-05-17T01:48:43.227Z,975.63
2019-05-17T01:49:43.107Z,975.59
2019-05-17T01:50:43.105Z,975.62
2019-05-17T01:51:42.989Z,975.60
2019-05-17T01:52:43.273Z,975.61
2019-05-17T01:53:42.988Z,975.63
2019-05-17T01:54:42.870Z,975.65
2019-05-17T01:55:42.868Z,975.60
2019-05-17T01:56:42.750Z,975.58
2019-05-17T01:57:42.749Z,975.59
2019-05-17T01:58:42.631Z,975.57
2019-05-17T01:59:42.634Z,975.58
2019-05-17T02:00:42.513Z,975.59
2019-05-17T02:01:42.511Z,975.55
2019-05-17T02:02:42.395Z,975.58
2019-05-17T02:03:42.391Z,975.53
2019-05-17T02:04:42.278Z,975.59
2019-05-17T02:05:42.279Z,975.53
2019-05-17T02:06:42.157Z,975.54
2019-05-17T02:07:42.153Z,975.58
2019-05-17T02:08:42.156Z,975.56
2019-05-17T02:09:42.048Z,975.55
2019-05-17T02:10:42.035Z,975.58
2019-05-17T02:11:41.918Z,975.50
2019-05-17T02:12:41.917Z,975.53
2019-05-17T02:13:41.799Z,975.49
2019-05-17T02:14:41.797Z,975.46
2019-05-17T02:15:41.681Z,975.50
2019-05-17T02:16:41.678Z,975.53
2019-05-17T02:17:41.568Z,975.50
2019-05-17T02:18:41.561Z,975.48
2019-05-17T02:19:41.446Z,975.49
2019-05-17T02:20:41.440Z,975.48
2019-05-17T02:21:41.323Z,975.49
2019-05-17T02:22:41.321Z,975.50
2019-05-17T02:23:41.321Z,975.49
2019-05-17T02:24:41.203Z,975.48
2019-05-17T02:25:41.203Z,975.49
2019-05-17T02:26:41.086Z,975.47
2019-05-17T02:27:44.396Z,975.46
2019-05-17T02:28:41.409Z,975.48
2019-05-17T02:29:42.434Z,975.47
2019-05-17T02:30:43.888Z,975.49
2019-05-17T02:31:43.498Z,975.46
2019-05-17T02:32:43.066Z,975.43
2019-05-17T02:33:43.082Z,975.41
2019-05-17T02:34:43.082Z,975.47
2019-05-17T02:35:42.902Z,975.43
2019-05-17T02:36:43.045Z,975.45
2019-05-17T02:37:43.346Z,975.45
2019-05-17T02:38:43.414Z,975.43
2019-05-17T02:39:53.810Z,975.43
2019-05-17T02:40:43.044Z,975.45
2019-05-17T02:41:43.037Z,975.45
2019-05-17T02:42:43.022Z,975.44
2019-05-17T02:43:43.187Z,975.45
2019-05-17T02:44:43.585Z,975.42
2019-05-17T02:45:43.289Z,975.45
2019-05-17T02:46:43.074Z,975.45
2019-05-17T02:47:43.140Z,975.47
2019-05-17T02:48:42.543Z,975.43
2019-05-17T02:49:42.305Z,975.40
2019-05-17T02:50:40.462Z,975.44
2019-05-17T02:51:39.673Z,975.43
2019-05-17T02:52:43.056Z,975.42
2019-05-17T02:53:42.683Z,975.38
2019-05-17T02:54:39.537Z,975.36
2019-05-17T02:55:39.537Z,975.36
2019-05-17T02:56:39.474Z,975.35
2019-05-17T02:57:42.822Z,975.35
2019-05-17T02:58:39.300Z,975.35
2019-05-17T02:59:39.300Z,975.33
2019-05-17T03:00:39.183Z,975.35
2019-05-17T03:01:39.182Z,975.33
2019-05-17T03:02:39.071Z,975.36
2019-05-17T03:03:39.061Z,975.34
2019-05-17T03:04:38.947Z,975.34
2019-05-17T03:05:38.942Z,975.36
2019-05-17T03:06:38.826Z,975.33
2019-05-17T03:07:38.826Z,975.37
2019-05-17T03:08:38.709Z,975.34
2019-05-17T03:09:38.705Z,975.31
2019-05-17T03:10:38.592Z,975.29
2019-05-17T03:11:38.586Z,975.33
2019-05-17T03:12:38.585Z,975.33
2019-05-17T03:13:38.470Z,975.31
2019-05-17T03:14:38.474Z,975.27
2019-05-17T03:15:38.352Z,975.31
2019-05-17T03:16:38.348Z,975.31
2019-05-17T03:17:38.234Z,975.30
2019-05-17T03:18:38.230Z,975.26
2019-05-17T03:19:38.118Z,975.30
2019-05-17T03:20:38.110Z,975.23
2019-05-17T03:21:37.994Z,975.23
2019-05-17T03:22:37.992Z,975.25
2019-05-17T03:23:37.875Z,975.29
2019-05-17T03:24:37.871Z,975.30
2019-05-17T03:25:37.761Z,975.25
2019-05-17T03:26:37.753Z,975.25
2019-05-17T03:27:37.757Z,975.22
2019-05-17T03:28:37.638Z,975.21
2019-05-17T03:29:37.635Z,975.22
2019-05-17T03:30:37.718Z,975.22
2019-05-17T03:31:44.639Z,975.23
2019-05-17T03:32:37.530Z,975.25
2019-05-17T03:33:37.396Z,975.27
2019-05-17T03:34:37.804Z,975.28
2019-05-17T03:35:38.718Z,975.25
2019-05-17T03:36:37.287Z,975.26
2019-05-17T03:37:38.078Z,975.28
2019-05-17T03:38:37.048Z,975.28
2019-05-17T03:39:37.039Z,975.25
2019-05-17T03:41:03.542Z,975.25
2019-05-17T03:41:36.923Z,975.26
2019-05-17T03:42:36.805Z,975.29
2019-05-17T03:43:40.320Z,975.23
2019-05-17T03:44:36.802Z,975.27
2019-05-17T03:45:36.683Z,975.23
2019-05-17T03:46:36.683Z,975.23
2019-05-17T03:47:36.568Z,975.30
2019-05-17T03:48:36.566Z,975.29
2019-05-17T03:49:39.299Z,975.31
2019-05-17T03:50:36.453Z,975.30
2019-05-17T03:51:36.329Z,975.28
2019-05-17T03:52:36.327Z,975.26
2019-05-17T03:53:36.209Z,975.29
2019-05-17T03:54:36.206Z,975.28
2019-05-17T03:55:36.117Z,975.32
2019-05-17T03:56:36.092Z,975.30
2019-05-17T03:57:35.978Z,975.29
2019-05-17T03:58:35.971Z,975.29
2019-05-17T03:59:35.852Z,975.30
2019-05-17T04:00:35.849Z,975.30
2019-05-17T04:01:35.850Z,975.28
2019-05-17T04:02:35.731Z,975.24
2019-05-17T04:03:35.852Z,975.25
2019-05-17T04:04:35.613Z,975.27
2019-05-17T04:05:35.613Z,975.30
2019-05-17T04:06:35.496Z,975.25
2019-05-17T04:07:35.493Z,975.27
2019-05-17T04:08:35.377Z,975.22
2019-05-17T04:09:37.618Z,975.27
2019-05-17T04:10:35.257Z,975.29
2019-05-17T04:11:36.401Z,975.29
2019-05-17T04:12:35.141Z,975.29
2019-05-17T04:13:35.135Z,975.32
2019-05-17T04:14:35.019Z,975.31
2019-05-17T04:15:35.017Z,975.29
2019-05-17T04:16:34.900Z,975.28
2019-05-17T04:17:34.897Z,975.29
2019-05-17T04:18:34.898Z,975.29
2019-05-17T04:19:34.780Z,975.24
2019-05-17T04:20:34.780Z,975.27
2019-05-17T04:21:34.667Z,975.29
2019-05-17T04:22:34.661Z,975.26
2019-05-17T04:23:34.548Z,975.28
2019-05-17T04:24:34.544Z,975.30
2019-05-17T04:25:38.532Z,975.30
2019-05-17T04:26:34.437Z,975.28
2019-05-17T04:27:34.306Z,975.27
2019-05-17T04:28:34.307Z,975.35
2019-05-17T04:29:34.194Z,975.32
2019-05-17T04:30:34.185Z,975.32
2019-05-17T04:31:35.159Z,975.33
2019-05-17T04:32:34.067Z,975.26
2019-05-17T04:33:34.019Z,975.33
2019-05-17T04:34:34.103Z,975.32
2019-05-17T04:35:33.947Z,975.30
2019-05-17T04:36:33.826Z,975.30
2019-05-17T04:37:38.099Z,975.36
2019-05-17T04:38:33.710Z,975.36
2019-05-17T04:39:33.773Z,975.39
2019-05-17T04:40:34.219Z,975.42
2019-05-17T04:41:45.075Z,975.43
2019-05-17T04:42:33.472Z,975.40
2019-05-17T04:43:33.799Z,975.44
2019-05-17T04:44:33.354Z,975.40
2019-05-17T04:45:33.817Z,975.46
2019-05-17T04:46:33.246Z,975.40
2019-05-17T04:47:33.582Z,975.46
2019-05-17T04:48:33.195Z,975.41
2019-05-17T04:49:33.424Z,975.47
2019-05-17T04:50:33.596Z,975.46
2019-05-17T04:51:32.995Z,975.45
2019-05-17T04:52:33.761Z,975.37
2019-05-17T04:53:33.312Z,975.44
2019-05-17T04:54:33.532Z,975.44
2019-05-17T04:55:34.083Z,975.44
2019-05-17T04:56:33.544Z,975.41
2019-05-17T04:57:32.727Z,975.45
2019-05-17T04:58:33.374Z,975.41
2019-05-17T04:59:33.703Z,975.46
2019-05-17T05:00:34.057Z,975.47
2019-05-17T05:01:33.125Z,975.44
2019-05-17T05:02:32.965Z,975.45
2019-05-17T05:03:32.775Z,975.43
2019-05-17T05:04:33.864Z,975.40
2019-05-17T05:05:32.999Z,975.41
2019-05-17T05:06:32.811Z,975.38
2019-05-17T05:07:33.616Z,975.38
2019-05-17T05:08:33.075Z,975.43
2019-05-17T05:09:32.349Z,975.43
2019-05-17T05:10:33.743Z,975.41
2019-05-17T05:11:32.824Z,975.39
2019-05-17T05:12:33.595Z,975.41
2019-05-17T05:13:33.327Z,975.42
2019-05-17T05:14:32.868Z,975.40
2019-05-17T05:15:32.272Z,975.41
2019-05-17T05:16:32.144Z,975.41
2019-05-17T05:17:32.914Z,975.42
2019-05-17T05:18:32.698Z,975.39
2019-05-17T05:19:32.995Z,975.44
2019-05-17T05:20:32.556Z,975.41
2019-05-17T05:21:32.337Z,975.37
2019-05-17T05:22:33.065Z,975.36
2019-05-17T05:23:31.881Z,975.34
2019-05-17T05:24:31.561Z,975.35
2019-05-17T05:25:32.300Z,975.35
2019-05-17T05:26:31.766Z,975.31
2019-05-17T05:27:31.630Z,975.32
2019-05-17T05:28:31.730Z,975.34
2019-05-17T05:29:32.135Z,975.30
2019-05-17T05:30:32.017Z,975.28
2019-05-17T05:31:32.183Z,975.26
2019-05-17T05:32:31.530Z,975.27
2019-05-17T05:33:33.287Z,975.24
2019-05-17T05:34:32.248Z,975.23
2019-05-17T05:35:31.798Z,975.21
2019-05-17T05:36:32.620Z,975.21
2019-05-17T05:37:32.996Z,975.19
2019-05-17T05:38:31.986Z,975.14
2019-05-17T05:39:32.009Z,975.21
2019-05-17T05:40:32.021Z,975.15
2019-05-17T05:41:32.062Z,975.17
2019-05-17T05:42:31.527Z,975.12
2019-05-17T05:43:32.426Z,975.14
2019-05-17T05:44:31.957Z,975.15
2019-05-17T05:45:31.926Z,975.21
2019-05-17T05:46:31.805Z,975.22
2019-05-17T05:47:32.237Z,975.20
2019-05-17T05:48:29.782Z,975.20
2019-05-17T05:49:31.905Z,975.18
2019-05-17T05:50:32.182Z,975.22
2019-05-17T05:51:31.842Z,975.21
2019-05-17T05:52:29.549Z,975.18
2019-05-17T05:53:29.545Z,975.21
2019-05-17T05:54:29.428Z,975.19
2019-05-17T05:55:31.970Z,975.22
2019-05-17T05:56:29.313Z,975.21
2019-05-17T05:57:29.306Z,975.18
2019-05-17T05:58:29.190Z,975.25
2019-05-17T05:59:31.558Z,975.17
2019-05-17T06:00:29.073Z,975.20
2019-05-17T06:01:29.068Z,975.20
2019-05-17T06:02:29.068Z,975.22
2019-05-17T06:03:28.967Z,975.21
2019-05-17T06:04:28.950Z,975.22
2019-05-17T06:05:28.831Z,975.23
2019-05-17T06:06:28.829Z,975.24
2019-05-17T06:07:28.722Z,975.21
2019-05-17T06:08:28.711Z,975.17
2019-05-17T06:09:28.594Z,975.16
2019-05-17T06:10:28.592Z,975.19
2019-05-17T06:11:28.475Z,975.13
2019-05-17T06:12:28.474Z,975.14
2019-05-17T06:13:28.356Z,975.14
2019-05-17T06:14:28.353Z,975.14
2019-05-17T06:15:28.236Z,975.12
2019-05-17T06:16:28.246Z,975.11
2019-05-17T06:17:28.237Z,975.13
2019-05-17T06:18:28.120Z,975.08
2019-05-17T06:19:28.117Z,975.09
2019-05-17T06:20:27.998Z,975.08
2019-05-17T06:21:27.997Z,975.07
2019-05-17T06:22:27.878Z,975.11
2019-05-17T06:23:27.878Z,975.03
2019-05-17T06:24:27.762Z,975.03
2019-05-17T06:25:27.776Z,975.07
2019-05-17T06:26:27.644Z,975.06
2019-05-17T06:27:27.643Z,975.11
2019-05-17T06:28:27.524Z,975.10
2019-05-17T06:29:27.523Z,975.12
2019-05-17T06:30:27.407Z,975.13
2019-05-17T06:31:27.403Z,975.08
2019-05-17T06:32:27.286Z,975.08
2019-05-17T06:33:31.027Z,975.10
2019-05-17T06:34:27.167Z,975.09
2019-05-17T06:35:27.164Z,975.08
2019-05-17T06:36:27.047Z,975.08
2019-05-17T06:37:27.045Z,975.04
2019-05-17T06:38:27.046Z,975.03
2019-05-17T06:39:26.927Z,975.04
2019-05-17T06:40:26.926Z,975.06
2019-05-17T06:41:26.809Z,975.08
2019-05-17T06:42:38.389Z,975.10
2019-05-17T06:43:26.692Z,975.05
2019-05-17T06:44:26.689Z,975.08
2019-05-17T06:45:26.572Z,975.07
2019-05-17T06:46:26.571Z,975.06
2019-05-17T06:47:26.455Z,975.04
2019-05-17T06:48:26.450Z,975.06
2019-05-17T06:49:26.334Z,975.02
2019-05-17T06:50:26.330Z,974.99
2019-05-17T06:51:26.215Z,974.97
2019-05-17T06:52:26.212Z,974.96
2019-05-17T06:53:26.096Z,974.94
2019-05-17T06:54:26.094Z,974.88
2019-05-17T06:55:26.093Z,974.89
2019-05-17T06:56:25.975Z,974.88
2019-05-17T06:57:25.975Z,974.85
2019-05-17T06:58:25.856Z,974.89
2019-05-17T06:59:25.856Z,974.83
2019-05-17T07:00:25.747Z,974.82
2019-05-17T07:01:25.737Z,974.85
2019-05-17T07:02:25.623Z,974.83
2019-05-17T07:03:25.619Z,974.86
2019-05-17T07:04:25.501Z,974.89
2019-05-17T07:05:25.499Z,974.86
2019-05-17T07:06:25.385Z,974.84
2019-05-17T07:07:25.384Z,974.84
2019-05-17T07:08:25.264Z,974.87
2019-05-17T07:09:25.261Z,974.85
2019-05-17T07:10:25.147Z,974.95
2019-05-17T07:11:25.141Z,974.84
2019-05-17T07:12:25.143Z,974.88
2019-05-17T07:13:25.023Z,974.82
2019-05-17T07:14:25.023Z,974.80
2019-05-17T07:15:24.907Z,974.77
2019-05-17T07:16:24.904Z,974.78
2019-05-17T07:17:24.788Z,974.73
2019-05-17T07:18:24.785Z,974.73
2019-05-17T07:19:24.668Z,974.77
2019-05-17T07:20:24.666Z,974.79
2019-05-17T07:21:24.552Z,974.77
2019-05-17T07:22:24.547Z,974.69
2019-05-17T07:23:24.431Z,974.73
2019-05-17T07:24:24.428Z,974.69
2019-05-17T07:25:24.312Z,974.66
2019-05-17T07:26:24.308Z,974.65
2019-05-17T07:27:37.591Z,974.63
2019-05-17T07:28:24.189Z,974.64
2019-05-17T07:29:24.190Z,974.67
2019-05-17T07:30:24.071Z,974.62
2019-05-17T07:31:24.073Z,974.60
2019-05-17T07:32:23.956Z,974.57
2019-05-17T07:33:23.951Z,974.57
2019-05-17T07:34:23.835Z,974.57
2019-05-17T07:35:23.833Z,974.54
2019-05-17T07:36:23.719Z,974.54
2019-05-17T07:37:23.718Z,974.54
2019-05-17T07:38:23.598Z,974.59
2019-05-17T07:39:23.595Z,974.61
2019-05-17T07:40:23.479Z,974.53
2019-05-17T07:41:23.477Z,974.52
2019-05-17T07:42:23.395Z,974.54
2019-05-17T07:43:23.357Z,974.58
2019-05-17T07:44:23.243Z,974.49
2019-05-17T07:45:23.238Z,974.53
2019-05-17T07:46:23.239Z,974.51
2019-05-17T07:47:23.120Z,974.50
2019-05-17T07:48:23.123Z,974.44
2019-05-17T07:49:23.002Z,974.43
2019-05-17T07:50:23.001Z,974.47
2019-05-17T07:51:22.885Z,974.47
2019-05-17T07:52:22.881Z,974.41
2019-05-17T07:53:22.765Z,974.43
2019-05-17T07:54:22.763Z,974.41
2019-05-17T07:55:23.141Z,974.47
2019-05-17T07:56:22.643Z,974.36
2019-05-17T07:57:22.527Z,974.39
2019-05-17T07:58:22.525Z,974.44
2019-05-17T07:59:22.408Z,974.40
2019-05-17T08:00:22.406Z,974.38
2019-05-17T08:01:22.295Z,974.34
2019-05-17T08:02:22.288Z,974.34
2019-05-17T08:03:24.828Z,974.32
2019-05-17T08:04:22.168Z,974.30
2019-05-17T08:05:22.170Z,974.29
2019-05-17T08:06:22.053Z,974.22
2019-05-17T08:07:22.050Z,974.27
2019-05-17T08:08:21.933Z,974.24
2019-05-17T08:09:21.930Z,974.25
2019-05-17T08:10:21.817Z,974.24
2019-05-17T08:11:21.811Z,974.22
2019-05-17T08:12:21.728Z,974.16
2019-05-17T08:13:29.965Z,974.04
2019-05-17T08:14:29.866Z,974.13
2019-05-17T08:15:21.573Z,974.08
2019-05-17T08:16:21.456Z,974.14
2019-05-17T08:17:21.454Z,974.16
2019-05-17T08:18:21.337Z,974.09
2019-05-17T08:19:21.336Z,974.12
2019-05-17T08:20:21.336Z,974.11
2019-05-17T08:21:21.216Z,974.07
2019-05-17T08:22:21.216Z,974.06
2019-05-17T08:23:21.104Z,974.06
2019-05-17T08:24:21.098Z,974.07
2019-05-17T08:25:20.988Z,974.05
2019-05-17T08:26:20.988Z,974.05
2019-05-17T08:27:20.862Z,973.95
2019-05-17T08:28:21.632Z,974.03
2019-05-17T08:29:20.748Z,974.01
2019-05-17T08:30:20.953Z,974.04
2019-05-17T08:31:20.623Z,973.98
2019-05-17T08:32:20.889Z,973.99
2019-05-17T08:33:20.504Z,973.94
2019-05-17T08:34:20.502Z,973.89
2019-05-17T08:35:20.504Z,973.90
2019-05-17T08:36:20.386Z,973.88
2019-05-17T08:37:20.561Z,973.87
2019-05-17T08:38:20.266Z,973.96
2019-05-17T08:39:20.265Z,973.83
2019-05-17T08:40:20.256Z,973.87
2019-05-17T08:41:20.810Z,973.89
2019-05-17T08:42:20.518Z,973.93
2019-05-17T08:43:21.371Z,973.87
2019-05-17T08:44:19.910Z,973.86
2019-05-17T08:45:20.592Z,973.78
2019-05-17T08:46:19.974Z,973.80
2019-05-17T08:47:20.928Z,973.80
2019-05-17T08:48:20.643Z,973.84
2019-05-17T08:49:20.181Z,973.82
2019-05-17T08:50:20.154Z,973.79
2019-05-17T08:51:19.736Z,973.76
2019-05-17T08:52:20.025Z,973.80
2019-05-17T08:53:19.850Z,973.75
2019-05-17T08:54:19.619Z,973.77
2019-05-17T08:55:20.473Z,973.70
2019-05-17T08:56:20.537Z,973.75
2019-05-17T08:57:20.453Z,973.77
2019-05-17T08:58:21.617Z,973.71
2019-05-17T08:59:20.194Z,973.71
2019-05-17T09:00:20.734Z,973.66
2019-05-17T09:01:19.584Z,973.67
2019-05-17T09:02:19.889Z,973.69
2019-05-17T09:03:19.615Z,973.70
2019-05-17T09:04:20.156Z,973.72
2019-05-17T09:05:21.233Z,973.66
2019-05-17T09:06:19.898Z,973.70
2019-05-17T09:07:20.363Z,973.68
2019-05-17T09:08:20.482Z,973.63
2019-05-17T09:09:20.426Z,973.66
2019-05-17T09:10:20.782Z,973.62
2019-05-17T09:11:19.662Z,973.64
2019-05-17T09:12:20.476Z,973.62
2019-05-17T09:13:19.553Z,973.61
2019-05-17T09:14:18.245Z,973.57
2019-05-17T09:15:20.169Z,973.58
2019-05-17T09:16:19.661Z,973.58
2019-05-17T09:17:19.381Z,973.56
2019-05-17T09:18:20.408Z,973.51
2019-05-17T09:19:19.401Z,973.45
2019-05-17T09:20:20.238Z,973.46
2019-05-17T09:21:17.889Z,973.44
2019-05-17T09:22:19.752Z,973.42
2019-05-17T09:23:19.726Z,973.41
2019-05-17T09:24:19.440Z,973.42
2019-05-17T09:25:19.802Z,973.41
2019-05-17T09:26:19.850Z,973.46
2019-05-17T09:27:19.605Z,973.49
2019-05-17T09:28:17.529Z,973.41
2019-05-17T09:29:17.418Z,973.41
2019-05-17T09:30:20.140Z,973.43
2019-05-17T09:31:17.292Z,973.39
2019-05-17T09:32:17.290Z,973.42
2019-05-17T09:33:19.143Z,973.38
2019-05-17T09:34:17.173Z,973.34
2019-05-17T09:35:17.056Z,973.34
2019-05-17T09:36:17.055Z,973.35
2019-05-17T09:37:19.842Z,973.34
2019-05-17T09:38:16.934Z,973.34
2019-05-17T09:39:16.934Z,973.31
2019-05-17T09:40:16.818Z,973.28
2019-05-17T09:41:16.817Z,973.26
2019-05-17T09:42:16.703Z,973.24
2019-05-17T09:43:16.696Z,973.23
2019-05-17T09:44:16.687Z,973.21
2019-05-17T09:45:16.577Z,973.23
2019-05-17T09:46:16.460Z,973.20
2019-05-17T09:47:16.460Z,973.18
2019-05-17T09:48:16.341Z,973.15
2019-05-17T09:49:16.339Z,973.23
2019-05-17T09:50:16.222Z,973.26
2019-05-17T09:51:16.220Z,973.27
2019-05-17T09:52:16.224Z,973.24
2019-05-17T09:53:16.107Z,973.24
2019-05-17T09:54:16.101Z,973.26
2019-05-17T09:55:15.985Z,973.22
2019-05-17T09:56:15.982Z,973.19
2019-05-17T09:57:15.865Z,973.23
2019-05-17T09:58:15.862Z,973.24
2019-05-17T09:59:15.748Z,973.17
2019-05-17T10:00:15.744Z,973.18
2019-05-17T10:01:15.627Z,973.22
2019-05-17T10:02:15.624Z,973.13
2019-05-17T10:03:15.510Z,973.19
2019-05-17T10:04:17.071Z,973.16
2019-05-17T10:05:16.108Z,973.04
2019-05-17T10:06:15.387Z,973.03
2019-05-17T10:07:15.389Z,972.98
2019-05-17T10:08:15.272Z,973.05
2019-05-17T10:09:15.269Z,972.99
2019-05-17T10:10:15.151Z,972.97
2019-05-17T10:11:15.150Z,972.93
2019-05-17T10:12:15.032Z,972.95
2019-05-17T10:13:15.029Z,972.93
2019-05-17T10:14:27.413Z,972.98
2019-05-17T10:15:14.912Z,972.91
2019-05-17T10:16:14.798Z,972.88
2019-05-17T10:17:14.792Z,972.88
2019-05-17T10:18:14.697Z,972.91
2019-05-17T10:19:14.674Z,972.89
2019-05-17T10:20:14.676Z,972.89
2019-05-17T10:21:14.554Z,972.88
2019-05-17T10:22:14.557Z,972.84
2019-05-17T10:23:14.438Z,972.86
2019-05-17T10:24:14.438Z,972.88
2019-05-17T10:25:14.325Z,972.88
2019-05-17T10:26:14.317Z,972.86
2019-05-17T10:27:14.768Z,972.86
2019-05-17T10:28:14.197Z,972.84
2019-05-17T10:29:14.082Z,972.83
2019-05-17T10:30:14.079Z,972.86
2019-05-17T10:31:13.963Z,972.90
2019-05-17T10:32:13.959Z,972.85
2019-05-17T10:33:13.959Z,972.85
2019-05-17T10:34:13.841Z,972.86
2019-05-17T10:35:13.841Z,972.83
2019-05-17T10:36:13.722Z,972.83
2019-05-17T10:37:13.722Z,972.77
2019-05-17T10:38:13.605Z,972.79
2019-05-17T10:39:13.602Z,972.81
2019-05-17T10:40:13.486Z,972.76
2019-05-17T10:41:13.484Z,972.74
2019-05-17T10:42:13.367Z,972.73
2019-05-17T10:43:13.366Z,972.77
2019-05-17T10:44:13.248Z,972.73
2019-05-17T10:45:13.246Z,972.75
2019-05-17T10:46:13.130Z,972.69
2019-05-17T10:47:13.127Z,972.70
2019-05-17T10:48:13.128Z,972.75
2019-05-17T10:49:13.010Z,972.69
2019-05-17T10:50:13.009Z,972.71
2019-05-17T10:51:13.471Z,972.74
2019-05-17T10:52:12.889Z,972.70
2019-05-17T10:53:12.776Z,972.72
2019-05-17T10:54:12.769Z,972.69
2019-05-17T10:55:12.655Z,972.71
2019-05-17T10:56:12.651Z,972.70
2019-05-17T10:57:12.535Z,972.73
2019-05-17T10:58:12.531Z,972.70
2019-05-17T10:59:12.416Z,972.68
2019-05-17T11:00:12.413Z,972.64
2019-05-17T11:01:12.412Z,972.63
2019-05-17T11:02:12.310Z,972.63
2019-05-17T11:03:12.299Z,972.60
2019-05-17T11:04:14.099Z,972.60
2019-05-17T11:05:12.175Z,972.57
2019-05-17T11:06:12.058Z,972.62
2019-05-17T11:07:12.056Z,972.54
2019-05-17T11:08:11.940Z,972.52
2019-05-17T11:09:11.938Z,972.58
2019-05-17T11:10:12.436Z,972.53
2019-05-17T11:11:11.818Z,972.54
2019-05-17T11:12:11.703Z,972.49
2019-05-17T11:13:11.700Z,972.48
2019-05-17T11:14:13.631Z,972.46
2019-05-17T11:15:12.228Z,972.51
2019-05-17T11:16:11.583Z,972.49
2019-05-17T11:17:11.467Z,972.48
2019-05-17T11:18:11.461Z,972.47
2019-05-17T11:19:11.348Z,972.46
2019-05-17T11:20:11.343Z,972.48
2019-05-17T11:21:11.227Z,972.44
2019-05-17T11:22:11.224Z,972.43
2019-05-17T11:23:11.109Z,972.40
2019-05-17T11:24:11.110Z,972.42
2019-05-17T11:25:10.998Z,972.43
2019-05-17T11:26:10.994Z,972.47
2019-05-17T11:27:10.986Z,972.47
2019-05-17T11:28:10.867Z,972.50
2019-05-17T11:29:10.867Z,972.47
2019-05-17T11:30:10.757Z,972.44
2019-05-17T11:31:10.748Z,972.41
2019-05-17T11:32:10.631Z,972.36
2019-05-17T11:33:10.629Z,972.34
2019-05-17T11:34:10.515Z,972.37
2019-05-17T11:35:10.511Z,972.38
2019-05-17T11:36:10.393Z,972.35
2019-05-17T11:37:10.393Z,972.42
2019-05-17T11:38:10.276Z,972.38
2019-05-17T11:39:10.272Z,972.45
2019-05-17T11:40:10.277Z,972.30
2019-05-17T11:41:20.689Z,972.42
2019-05-17T11:42:10.155Z,972.42
2019-05-17T11:43:10.040Z,972.37
2019-05-17T11:44:10.082Z,972.36
2019-05-17T11:45:09.918Z,972.32
2019-05-17T11:46:09.915Z,972.36
2019-05-17T11:47:09.802Z,972.31
2019-05-17T11:48:09.802Z,972.31
2019-05-17T11:49:09.682Z,972.27
2019-05-17T11:50:09.678Z,972.30
2019-05-17T11:51:09.561Z,972.26
2019-05-17T11:52:09.559Z,972.25
2019-05-17T11:53:09.559Z,972.28
2019-05-17T11:54:09.447Z,972.26
2019-05-17T11:55:09.442Z,972.26
2019-05-17T11:56:09.327Z,972.26
2019-05-17T11:57:12.188Z,972.26
2019-05-17T11:58:09.205Z,972.23
2019-05-17T11:59:09.202Z,972.26
2019-05-17T12:00:09.086Z,972.22
2019-05-17T12:01:09.083Z,972.28
2019-05-17T12:02:08.966Z,972.25
2019-05-17T12:03:08.964Z,972.17
2019-05-17T12:04:08.851Z,972.22
2019-05-17T12:05:08.874Z,972.21
2019-05-17T12:06:08.844Z,972.22
2019-05-17T12:07:08.726Z,972.18
2019-05-17T12:08:08.942Z,972.16
2019-05-17T12:09:08.610Z,972.15
2019-05-17T12:10:08.610Z,972.12
2019-05-17T12:11:08.491Z,972.13
2019-05-17T12:12:08.492Z,972.17
2019-05-17T12:13:08.378Z,972.17
2019-05-17T12:14:08.369Z,972.17
2019-05-17T12:15:08.255Z,972.16
2019-05-17T12:16:08.258Z,972.15
2019-05-17T12:17:08.253Z,972.12
2019-05-17T12:18:08.134Z,972.13
2019-05-17T12:19:08.133Z,972.09
2019-05-17T12:20:08.014Z,972.10
2019-05-17T12:21:08.014Z,972.08
2019-05-17T12:22:07.901Z,972.15
2019-05-17T12:23:07.894Z,972.14
2019-05-17T12:24:07.782Z,972.12
2019-05-17T12:25:07.779Z,972.10
2019-05-17T12:26:07.665Z,972.13
2019-05-17T12:27:07.656Z,972.11
2019-05-17T12:28:07.539Z,972.07